createdAt,value
2023-11-25T00:00:53.742Z,95.03
2023-11-25T00:03:44.463Z,95.03
2023-11-25T00:06:35.274Z,95.09
2023-11-25T00:09:26.190Z,95.14
2023-11-25T00:12:16.968Z,95.15
2023-11-25T00:15:08.497Z,95.15
2023-11-25T00:17:59.293Z,95.23
2023-11-25T00:20:50.054Z,95.17
2023-11-25T00:23:40.795Z,95.20
2023-11-25T00:26:31.531Z,95.17
2023-11-25T00:29:22.246Z,95.19
2023-11-25T00:32:12.943Z,95.26
2023-11-25T00:35:07.715Z,95.26
2023-11-25T00:37:58.611Z,95.27
2023-11-25T00:40:50.393Z,95.27
2023-11-25T00:43:41.273Z,95.24
2023-11-25T00:46:32.092Z,95.25
2023-11-25T00:49:22.874Z,95.30
2023-11-25T00:52:13.732Z,95.33
2023-11-25T00:55:06.726Z,95.28
2023-11-25T00:57:57.502Z,95.26
2023-11-25T01:00:48.277Z,95.30
2023-11-25T01:03:39.088Z,95.29
2023-11-25T01:06:30.079Z,95.33
2023-11-25T01:09:20.890Z,95.35
2023-11-25T01:12:12.131Z,95.37
2023-11-25T01:15:05.044Z,95.34
2023-11-25T01:17:55.822Z,95.31
2023-11-25T01:20:46.922Z,95.35
2023-11-25T01:23:37.715Z,95.35
2023-11-25T01:26:28.399Z,95.36
2023-11-25T01:29:19.160Z,95.41
2023-11-25T01:32:10.620Z,95.48
2023-11-25T01:35:02.180Z,95.50
2023-11-25T01:37:52.973Z,95.47
2023-11-25T01:40:43.747Z,95.52
2023-11-25T01:43:34.651Z,95.50
2023-11-25T01:46:39.945Z,95.53
2023-11-25T01:49:31.117Z,95.49
2023-11-25T01:52:23.535Z,95.55
2023-11-25T01:55:15.831Z,95.60
2023-11-25T01:58:07.959Z,95.62
2023-11-25T02:00:59.082Z,95.63
2023-11-25T02:03:49.839Z,95.66
2023-11-25T02:06:40.909Z,95.69
2023-11-25T02:09:32.349Z,95.66
2023-11-25T02:12:23.269Z,95.70
2023-11-25T02:15:15.844Z,95.69
2023-11-25T02:18:08.294Z,95.72
2023-11-25T02:20:59.811Z,95.75
2023-11-25T02:23:51.345Z,95.70
2023-11-25T02:26:42.101Z,95.70
2023-11-25T02:29:33.791Z,95.72
2023-11-25T02:32:24.723Z,95.70
2023-11-25T02:35:16.075Z,95.68
2023-11-25T02:38:06.833Z,95.68
2023-11-25T02:40:57.688Z,95.68
2023-11-25T02:43:48.519Z,95.66
2023-11-25T02:46:39.838Z,95.67
2023-11-25T02:49:31.179Z,95.67
2023-11-25T02:52:27.357Z,95.69
2023-11-25T02:55:18.510Z,95.69
2023-11-25T02:58:09.276Z,95.70
2023-11-25T03:01:08.138Z,95.70
2023-11-25T03:04:02.586Z,95.74
2023-11-25T03:06:53.500Z,95.77
2023-11-25T03:09:44.228Z,95.80
2023-11-25T03:12:35.480Z,95.80
2023-11-25T03:15:26.295Z,95.82
2023-11-25T03:18:17.051Z,95.82
2023-11-25T03:21:10.798Z,95.80
2023-11-25T03:24:01.571Z,95.79
2023-11-25T03:26:52.451Z,95.75
2023-11-25T03:29:43.145Z,95.73
2023-11-25T03:32:35.886Z,95.75
2023-11-25T03:35:26.782Z,95.73
2023-11-25T03:38:17.520Z,95.71
2023-11-25T03:41:09.949Z,95.74
2023-11-25T03:44:04.368Z,95.71
2023-11-25T03:46:55.145Z,95.69
2023-11-25T03:49:46.253Z,95.70
2023-11-25T03:52:37.036Z,95.74
2023-11-25T03:55:28.590Z,95.71
2023-11-25T03:58:19.940Z,95.66
2023-11-25T04:01:10.713Z,95.64
2023-11-25T04:04:03.039Z,95.64
2023-11-25T04:06:53.820Z,95.65
2023-11-25T04:09:44.565Z,95.62
2023-11-25T04:12:35.299Z,95.64
2023-11-25T04:15:26.142Z,95.65
2023-11-25T04:18:17.043Z,95.68
2023-11-25T04:21:08.212Z,95.70
2023-11-25T04:23:59.036Z,95.69
2023-11-25T04:26:49.729Z,95.69
2023-11-25T04:29:43.697Z,95.65
2023-11-25T04:32:34.762Z,95.65
2023-11-25T04:35:27.031Z,95.57
2023-11-25T04:38:17.821Z,95.59
2023-11-25T04:41:08.599Z,95.60
2023-11-25T04:43:59.418Z,95.57
2023-11-25T04:46:50.167Z,95.55
2023-11-25T04:49:41.331Z,95.57
2023-11-25T04:52:32.108Z,95.55
2023-11-25T04:55:26.697Z,95.61
2023-11-25T04:58:17.655Z,95.56
2023-11-25T05:01:08.446Z,95.49
2023-11-25T05:03:59.844Z,95.43
2023-11-25T05:06:50.605Z,95.42
2023-11-25T05:09:42.404Z,95.37
2023-11-25T05:12:33.669Z,95.34
2023-11-25T05:15:26.438Z,95.32
2023-11-25T05:18:18.749Z,95.24
2023-11-25T05:21:10.901Z,95.22
2023-11-25T05:24:01.630Z,95.21
2023-11-25T05:26:52.352Z,95.16
2023-11-25T05:29:43.181Z,95.12
2023-11-25T05:32:33.978Z,95.12
2023-11-25T05:35:24.679Z,95.03
2023-11-25T05:38:16.820Z,95.00
2023-11-25T05:41:10.110Z,94.97
2023-11-25T05:44:03.495Z,94.92
2023-11-25T05:46:56.169Z,94.90
2023-11-25T05:49:46.946Z,94.75
2023-11-25T05:52:37.725Z,94.73
2023-11-25T05:55:28.522Z,94.68
2023-11-25T05:58:19.313Z,94.70
2023-11-25T06:01:10.002Z,94.66
2023-11-25T06:04:00.889Z,94.67
2023-11-25T06:06:51.680Z,94.60
2023-11-25T06:09:42.439Z,94.56
2023-11-25T06:12:33.513Z,94.45
2023-11-25T06:15:24.306Z,94.29
2023-11-25T06:18:15.841Z,94.22
2023-11-25T06:21:06.719Z,94.14
2023-11-25T06:23:57.645Z,94.02
2023-11-25T06:26:49.366Z,93.94
2023-11-25T06:29:40.816Z,93.87
2023-11-25T06:32:34.185Z,93.95
2023-11-25T06:35:27.107Z,93.99
2023-11-25T06:38:18.924Z,93.97
2023-11-25T06:41:10.861Z,93.99
2023-11-25T06:44:01.664Z,93.93
2023-11-25T06:46:52.512Z,93.87
2023-11-25T06:49:47.581Z,93.82
2023-11-25T06:52:38.406Z,93.75
2023-11-25T06:55:29.290Z,93.61
2023-11-25T06:58:20.820Z,93.52
2023-11-25T07:01:20.286Z,93.47
2023-11-25T07:04:11.707Z,93.42
2023-11-25T07:07:02.415Z,93.30
2023-11-25T07:09:54.205Z,93.27
2023-11-25T07:12:44.978Z,93.20
2023-11-25T07:15:36.760Z,93.18
2023-11-25T07:18:28.443Z,93.14
2023-11-25T07:21:19.342Z,93.11
2023-11-25T07:24:10.140Z,93.05
2023-11-25T07:27:06.389Z,93.03
2023-11-25T07:30:02.365Z,92.84
2023-11-25T07:32:53.367Z,92.70
2023-11-25T07:35:44.174Z,92.67
2023-11-25T07:38:34.989Z,92.68
2023-11-25T07:41:26.146Z,92.51
2023-11-25T07:44:16.870Z,92.27
2023-11-25T07:47:07.717Z,92.17
2023-11-25T07:49:58.507Z,91.99
2023-11-25T07:52:50.585Z,91.89
2023-11-25T07:55:44.851Z,91.82
2023-11-25T07:58:35.745Z,91.72
2023-11-25T08:01:27.334Z,91.49
2023-11-25T08:04:18.214Z,91.32
2023-11-25T08:07:08.991Z,91.23
2023-11-25T08:09:59.722Z,91.17
2023-11-25T08:12:50.597Z,91.03
2023-11-25T08:15:41.414Z,90.94
2023-11-25T08:18:32.481Z,90.74
2023-11-25T08:21:24.625Z,90.79
2023-11-25T08:24:18.978Z,90.71
2023-11-25T08:27:09.757Z,90.67
2023-11-25T08:30:00.557Z,90.76
2023-11-25T08:32:51.543Z,90.75
2023-11-25T08:35:42.511Z,90.59
2023-11-25T08:38:33.398Z,90.35
2023-11-25T08:41:24.921Z,90.41
2023-11-25T08:44:16.469Z,90.06
2023-11-25T08:47:07.641Z,90.15
2023-11-25T08:49:58.507Z,90.07
2023-11-25T08:52:50.364Z,90.19
2023-11-25T08:55:41.662Z,90.32
2023-11-25T08:58:32.385Z,90.38
2023-11-25T09:01:25.957Z,90.15
2023-11-25T09:04:26.645Z,90.06
2023-11-25T09:07:18.505Z,89.69
2023-11-25T09:10:11.807Z,89.76
2023-11-25T09:13:04.122Z,89.36
2023-11-25T09:15:54.948Z,89.19
2023-11-25T09:18:45.727Z,89.25
2023-11-25T09:21:36.516Z,89.19
2023-11-25T09:24:27.200Z,89.16
2023-11-25T09:27:17.931Z,88.85
2023-11-25T09:30:13.709Z,88.82
2023-11-25T09:33:04.505Z,88.72
2023-11-25T09:35:55.270Z,88.46
2023-11-25T09:38:46.361Z,88.33
2023-11-25T09:41:38.866Z,88.39
2023-11-25T09:44:31.886Z,88.52
2023-11-25T09:47:24.303Z,88.56
2023-11-25T09:50:15.327Z,88.31
2023-11-25T09:53:24.025Z,88.65
2023-11-25T09:56:17.422Z,88.59
2023-11-25T09:59:08.803Z,88.60
2023-11-25T10:02:00.410Z,88.89
2023-11-25T10:04:54.484Z,89.04
2023-11-25T10:07:46.614Z,89.10
2023-11-25T10:10:38.262Z,89.05
2023-11-25T10:13:34.149Z,89.30
2023-11-25T10:16:29.637Z,89.03
2023-11-25T10:19:22.269Z,88.41
2023-11-25T10:22:13.022Z,88.09
2023-11-25T10:25:03.990Z,87.84
2023-11-25T10:27:56.381Z,87.46
2023-11-25T10:31:05.548Z,87.60
2023-11-25T10:33:57.242Z,87.98
2023-11-25T10:36:50.964Z,88.12
2023-11-25T10:39:41.740Z,88.59
2023-11-25T10:42:33.317Z,88.89
2023-11-25T10:45:28.869Z,89.19
2023-11-25T10:48:20.413Z,89.37
2023-11-25T10:51:12.044Z,89.31
2023-11-25T10:54:04.575Z,89.43
2023-11-25T10:56:56.517Z,89.46
2023-11-25T10:59:49.398Z,89.30
2023-11-25T11:02:56.250Z,89.16
2023-11-25T11:06:02.813Z,89.26
2023-11-25T11:08:54.820Z,89.32
2023-11-25T11:11:54.717Z,89.11
2023-11-25T11:15:08.406Z,89.02
2023-11-25T11:18:25.470Z,88.86
2023-11-25T11:21:17.288Z,88.49
2023-11-25T11:24:09.714Z,88.31
2023-11-25T11:27:15.627Z,88.38
2023-11-25T11:30:21.803Z,88.27
2023-11-25T11:33:15.823Z,88.16
2023-11-25T11:36:07.722Z,88.06
2023-11-25T11:38:58.999Z,88.15
2023-11-25T11:41:49.745Z,88.43
2023-11-25T11:44:40.572Z,88.54
2023-11-25T11:47:33.516Z,88.76
2023-11-25T11:50:34.620Z,88.99
2023-11-25T11:53:26.840Z,89.02
2023-11-25T11:56:18.657Z,89.00
2023-11-25T11:59:09.607Z,88.96
2023-11-25T12:02:00.377Z,89.01
2023-11-25T12:04:51.257Z,88.86
2023-11-25T12:07:42.026Z,88.71
2023-11-25T12:10:34.050Z,88.66
2023-11-25T12:13:29.217Z,88.58
2023-11-25T12:16:20.478Z,88.41
2023-11-25T12:19:11.489Z,88.23
2023-11-25T12:22:02.290Z,88.03
2023-11-25T12:24:53.344Z,88.21
2023-11-25T12:27:54.760Z,88.11
2023-11-25T12:30:45.529Z,88.08
2023-11-25T12:33:36.619Z,87.98
2023-11-25T12:36:27.377Z,87.81
2023-11-25T12:39:18.149Z,87.98
2023-11-25T12:42:09.749Z,87.90
2023-11-25T12:45:02.217Z,88.04
2023-11-25T12:47:52.987Z,88.20
2023-11-25T12:51:08.104Z,88.14
2023-11-25T12:53:58.968Z,88.09
2023-11-25T12:56:54.589Z,88.08
2023-11-25T12:59:47.164Z,88.11
2023-11-25T13:02:46.873Z,88.16
2023-11-25T13:05:37.917Z,88.22
2023-11-25T13:08:33.180Z,88.41
2023-11-25T13:11:23.923Z,88.40
2023-11-25T13:14:15.093Z,88.61
2023-11-25T13:17:07.384Z,88.69
2023-11-25T13:19:58.970Z,88.77
2023-11-25T13:22:51.076Z,88.89
2023-11-25T13:25:41.902Z,89.10
2023-11-25T13:28:32.713Z,89.28
2023-11-25T13:31:25.129Z,89.42
2023-11-25T13:34:16.319Z,89.56
2023-11-25T13:37:08.938Z,89.62
2023-11-25T13:40:00.308Z,89.70
2023-11-25T13:42:51.029Z,89.73
2023-11-25T13:45:42.745Z,89.74
2023-11-25T13:48:33.527Z,89.81
2023-11-25T13:51:24.261Z,89.85
2023-11-25T13:54:16.553Z,89.86
2023-11-25T13:57:07.360Z,90.01
2023-11-25T13:59:58.076Z,90.05
2023-11-25T14:02:51.627Z,90.11
2023-11-25T14:05:47.201Z,90.22
2023-11-25T14:08:38.438Z,90.26
2023-11-25T14:11:31.719Z,90.22
2023-11-25T14:14:22.504Z,90.33
2023-11-25T14:17:17.440Z,90.26
2023-11-25T14:20:20.240Z,90.27
2023-11-25T14:23:11.598Z,90.41
2023-11-25T14:26:05.615Z,90.38
2023-11-25T14:28:56.799Z,90.52
2023-11-25T14:31:47.645Z,90.53
2023-11-25T14:34:39.014Z,90.64
2023-11-25T14:37:29.890Z,90.69
2023-11-25T14:40:20.879Z,90.73
2023-11-25T14:43:11.711Z,90.84
2023-11-25T14:46:02.542Z,90.82
2023-11-25T14:48:53.885Z,90.93
2023-11-25T14:51:44.694Z,91.05
2023-11-25T14:54:35.411Z,91.01
2023-11-25T14:57:28.768Z,91.09
2023-11-25T15:00:19.982Z,91.13
2023-11-25T15:03:10.823Z,91.17
2023-11-25T15:06:01.734Z,91.26
2023-11-25T15:08:52.445Z,91.29
2023-11-25T15:11:43.130Z,91.34
2023-11-25T15:14:34.381Z,91.41
2023-11-25T15:17:25.419Z,91.46
2023-11-25T15:20:16.289Z,91.56
2023-11-25T15:23:07.506Z,91.55
2023-11-25T15:25:58.654Z,91.62
2023-11-25T15:28:52.553Z,91.67
2023-11-25T15:31:46.797Z,91.71
2023-11-25T15:34:38.350Z,91.78
2023-11-25T15:37:29.172Z,91.85
2023-11-25T15:40:20.071Z,91.91
2023-11-25T15:43:10.847Z,91.96
2023-11-25T15:46:02.413Z,91.90
2023-11-25T15:48:53.496Z,91.96
2023-11-25T15:51:45.236Z,91.96
2023-11-25T15:54:36.040Z,91.95
2023-11-25T15:57:27.468Z,91.96
2023-11-25T16:00:20.341Z,91.97
2023-11-25T16:03:11.745Z,92.00
2023-11-25T16:06:05.897Z,92.02
2023-11-25T16:08:56.615Z,92.05
2023-11-25T16:11:47.977Z,92.04
2023-11-25T16:14:38.731Z,92.03
2023-11-25T16:17:29.581Z,92.05
2023-11-25T16:20:20.876Z,92.09
2023-11-25T16:23:12.300Z,92.07
2023-11-25T16:26:03.165Z,92.12
2023-11-25T16:28:53.893Z,92.14
2023-11-25T16:31:44.706Z,92.07
2023-11-25T16:34:35.492Z,92.07
2023-11-25T16:37:26.289Z,92.12
2023-11-25T16:40:20.136Z,92.16
2023-11-25T16:43:10.901Z,92.15
2023-11-25T16:46:01.721Z,92.15
2023-11-25T16:48:56.406Z,92.24
2023-11-25T16:51:53.564Z,92.26
2023-11-25T16:54:44.304Z,92.29
2023-11-25T16:57:37.703Z,92.24
2023-11-25T17:00:29.717Z,92.26
2023-11-25T17:03:20.670Z,92.21
2023-11-25T17:06:14.330Z,92.26
2023-11-25T17:09:05.251Z,92.18
2023-11-25T17:11:56.106Z,92.25
2023-11-25T17:14:49.495Z,92.29
2023-11-25T17:17:42.263Z,92.27
2023-11-25T17:20:33.368Z,92.20
2023-11-25T17:23:24.134Z,92.24
2023-11-25T17:26:15.418Z,92.29
2023-11-25T17:29:06.234Z,92.31
2023-11-25T17:31:57.093Z,92.38
2023-11-25T17:34:47.913Z,92.38
2023-11-25T17:37:38.845Z,92.37
2023-11-25T17:40:29.627Z,92.43
2023-11-25T17:43:20.637Z,92.48
2023-11-25T17:46:11.574Z,92.47
2023-11-25T17:49:02.310Z,92.44
2023-11-25T17:51:53.143Z,92.46
2023-11-25T17:54:43.885Z,92.54
2023-11-25T17:57:34.625Z,92.54
2023-11-25T18:00:25.429Z,92.52
2023-11-25T18:03:17.636Z,92.51
2023-11-25T18:06:08.547Z,92.55
2023-11-25T18:08:59.230Z,92.54
2023-11-25T18:11:50.504Z,92.57
2023-11-25T18:14:41.271Z,92.59
2023-11-25T18:17:33.259Z,92.63
2023-11-25T18:20:24.079Z,92.60
2023-11-25T18:23:14.913Z,92.60
2023-11-25T18:26:06.149Z,92.56
2023-11-25T18:28:57.074Z,92.58
2023-11-25T18:31:47.839Z,92.58
2023-11-25T18:34:39.547Z,92.57
2023-11-25T18:37:30.419Z,92.59
2023-11-25T18:40:22.433Z,92.64
2023-11-25T18:43:13.378Z,92.60
2023-11-25T18:46:11.359Z,92.62
2023-11-25T18:49:02.194Z,92.67
2023-11-25T18:51:52.907Z,92.66
2023-11-25T18:54:44.708Z,92.61
2023-11-25T18:57:35.392Z,92.62
2023-11-25T19:00:26.144Z,92.65
2023-11-25T19:03:17.452Z,92.63
2023-11-25T19:06:08.297Z,92.64
2023-11-25T19:08:59.133Z,92.65
2023-11-25T19:11:50.405Z,92.64
2023-11-25T19:14:41.399Z,92.64
2023-11-25T19:17:32.233Z,92.66
2023-11-25T19:20:23.488Z,92.63
2023-11-25T19:23:14.209Z,92.69
2023-11-25T19:26:05.383Z,92.70
2023-11-25T19:28:57.081Z,92.72
2023-11-25T19:31:48.168Z,92.77
2023-11-25T19:34:39.176Z,92.80
2023-11-25T19:37:29.957Z,92.87
2023-11-25T19:40:21.022Z,92.89
2023-11-25T19:43:11.887Z,92.88
2023-11-25T19:46:04.129Z,92.90
2023-11-25T19:48:54.875Z,92.88
2023-11-25T19:51:47.549Z,92.86
2023-11-25T19:54:38.236Z,92.88
2023-11-25T19:57:28.936Z,92.91
2023-11-25T20:00:19.657Z,92.94
2023-11-25T20:03:10.550Z,92.96
2023-11-25T20:06:01.467Z,93.00
2023-11-25T20:08:52.248Z,93.04
2023-11-25T20:11:43.027Z,93.00
2023-11-25T20:14:33.748Z,93.04
2023-11-25T20:17:26.055Z,93.02
2023-11-25T20:20:17.820Z,93.05
2023-11-25T20:23:09.764Z,93.05
2023-11-25T20:26:00.670Z,93.05
2023-11-25T20:28:51.510Z,93.04
2023-11-25T20:31:42.300Z,93.02
2023-11-25T20:34:33.072Z,93.04
2023-11-25T20:37:23.772Z,93.05
2023-11-25T20:40:14.798Z,93.08
2023-11-25T20:43:05.978Z,93.08
2023-11-25T20:45:56.739Z,93.11
2023-11-25T20:48:47.652Z,93.09
2023-11-25T20:51:38.459Z,93.10
2023-11-25T20:54:29.294Z,93.08
2023-11-25T20:57:20.001Z,93.08
2023-11-25T21:00:12.098Z,93.09
2023-11-25T21:03:04.047Z,93.08
2023-11-25T21:05:55.011Z,93.13
2023-11-25T21:08:45.867Z,93.15
2023-11-25T21:11:36.571Z,93.18
2023-11-25T21:14:28.736Z,93.17
2023-11-25T21:17:20.545Z,93.17
2023-11-25T21:20:11.753Z,93.21
2023-11-25T21:23:02.551Z,93.27
2023-11-25T21:25:53.322Z,93.24
2023-11-25T21:28:44.152Z,93.24
2023-11-25T21:31:34.999Z,93.29
2023-11-25T21:34:25.764Z,93.26
2023-11-25T21:37:16.549Z,93.28
2023-11-25T21:40:16.696Z,93.23
2023-11-25T21:43:13.685Z,93.21
2023-11-25T21:46:07.064Z,93.19
2023-11-25T21:48:57.875Z,93.29
2023-11-25T21:51:48.821Z,93.30
2023-11-25T21:54:39.595Z,93.37
2023-11-25T21:57:30.334Z,93.39
2023-11-25T22:00:21.228Z,93.42
2023-11-25T22:03:12.092Z,93.43
2023-11-25T22:06:05.282Z,93.49
2023-11-25T22:08:57.341Z,93.54
2023-11-25T22:11:49.009Z,93.55
2023-11-25T22:14:40.014Z,93.56
2023-11-25T22:17:30.798Z,93.55
2023-11-25T22:20:22.222Z,93.54
2023-11-25T22:23:15.388Z,93.64
2023-11-25T22:26:16.227Z,93.68
2023-11-25T22:29:07.159Z,93.80
2023-11-25T22:31:58.627Z,93.74
2023-11-25T22:34:49.514Z,93.82
2023-11-25T22:37:40.265Z,93.87
2023-11-25T22:40:31.030Z,93.92
2023-11-25T22:43:21.765Z,93.97
2023-11-25T22:46:24.391Z,94.04
2023-11-25T22:49:15.212Z,94.06
2023-11-25T22:52:06.425Z,94.05
2023-11-25T22:54:57.208Z,94.07
2023-11-25T22:57:49.528Z,94.05
2023-11-25T23:00:50.836Z,94.04
2023-11-25T23:03:41.980Z,94.07
2023-11-25T23:06:36.354Z,94.11
2023-11-25T23:09:29.092Z,94.05
2023-11-25T23:12:20.556Z,94.07
2023-11-25T23:15:11.370Z,94.11
2023-11-25T23:18:03.133Z,94.14
2023-11-25T23:20:53.920Z,94.14
2023-11-25T23:23:48.553Z,94.11
2023-11-25T23:26:41.157Z,94.15
2023-11-25T23:29:31.876Z,94.20
2023-11-25T23:32:22.680Z,94.16
2023-11-25T23:35:13.557Z,94.19
2023-11-25T23:38:04.901Z,94.14
2023-11-25T23:40:55.702Z,94.13
2023-11-25T23:43:46.488Z,94.07
2023-11-25T23:46:37.278Z,94.12
2023-11-25T23:49:28.225Z,94.12
2023-11-25T23:52:19.281Z,94.08
2023-11-25T23:55:10.049Z,94.14
2023-11-25T23:58:00.803Z,94.14
